sensor_id;sensor_type;location;lat;lon;timestamp;pressure;altitude;pressure_sealevel;temperature;humidity
45403;BME280;47427;51.976;5.326;2023-05-12T00:02:41;101613.38;;;12.82;100.00
45403;BME280;47427;51.976;5.326;2023-05-12T00:06:04;101614.06;;;12.75;100.00
45403;BME280;47427;51.976;5.326;2023-05-12T00:09:25;101609.59;;;12.72;100.00
45403;BME280;47427;51.976;5.326;2023-05-12T00:12:48;101613.88;;;12.69;100.00
45403;BME280;47427;51.976;5.326;2023-05-12T00:16:10;101611.34;;;12.73;100.00
45403;BME280;47427;51.976;5.326;2023-05-12T00:19:33;101612.28;;;12.74;100.00
45403;BME280;47427;51.976;5.326;2023-05-12T00:22:57;101607.00;;;12.74;100.00
45403;BME280;47427;51.976;5.326;2023-05-12T00:26:19;101611.19;;;12.67;100.00
45403;BME280;47427;51.976;5.326;2023-05-12T00:29:42;101603.22;;;12.66;100.00
45403;BME280;47427;51.976;5.326;2023-05-12T00:33:05;101600.66;;;12.67;100.00
45403;BME280;47427;51.976;5.326;2023-05-12T00:36:28;101605.88;;;12.66;100.00
45403;BME280;47427;51.976;5.326;2023-05-12T00:39:49;101595.97;;;12.57;100.00
45403;BME280;47427;51.976;5.326;2023-05-12T00:43:12;101602.19;;;12.59;100.00
45403;BME280;47427;51.976;5.326;2023-05-12T00:46:33;101599.53;;;12.59;100.00
45403;BME280;47427;51.976;5.326;2023-05-12T00:49:56;101593.34;;;12.57;100.00
45403;BME280;47427;51.976;5.326;2023-05-12T00:53:19;101597.84;;;12.61;100.00
45403;BME280;47427;51.976;5.326;2023-05-12T00:56:41;101598.78;;;12.63;100.00
45403;BME280;47427;51.976;5.326;2023-05-12T01:00:05;101587.28;;;12.60;100.00
45403;BME280;47427;51.976;5.326;2023-05-12T01:03:29;101585.59;;;12.63;100.00
45403;BME280;47427;51.976;5.326;2023-05-12T01:07:02;101596.06;;;12.60;100.00
45403;BME280;47427;51.976;5.326;2023-05-12T01:10:26;101586.53;;;12.64;100.00
45403;BME280;47427;51.976;5.326;2023-05-12T01:13:48;101576.91;;;12.66;100.00
45403;BME280;47427;51.976;5.326;2023-05-12T01:17:31;101580.13;;;12.55;100.00
45403;BME280;47427;51.976;5.326;2023-05-12T01:20:55;101578.50;;;12.59;100.00
45403;BME280;47427;51.976;5.326;2023-05-12T01:24:20;101569.69;;;12.58;100.00
45403;BME280;47427;51.976;5.326;2023-05-12T01:27:45;101577.38;;;12.51;100.00
45403;BME280;47427;51.976;5.326;2023-05-12T01:31:09;101566.56;;;12.42;100.00
45403;BME280;47427;51.976;5.326;2023-05-12T01:34:33;101571.03;;;12.44;100.00
45403;BME280;47427;51.976;5.326;2023-05-12T01:37:56;101565.00;;;12.48;100.00
45403;BME280;47427;51.976;5.326;2023-05-12T01:41:17;101574.03;;;12.56;100.00
45403;BME280;47427;51.976;5.326;2023-05-12T01:44:40;101558.97;;;12.52;100.00
45403;BME280;47427;51.976;5.326;2023-05-12T01:48:03;101560.78;;;12.53;100.00
45403;BME280;47427;51.976;5.326;2023-05-12T01:51:25;101557.06;;;12.47;100.00
45403;BME280;47427;51.976;5.326;2023-05-12T01:54:47;101559.78;;;12.50;100.00
45403;BME280;47427;51.976;5.326;2023-05-12T01:58:10;101559.16;;;12.58;100.00
45403;BME280;47427;51.976;5.326;2023-05-12T02:01:32;101556.31;;;12.51;100.00
45403;BME280;47427;51.976;5.326;2023-05-12T02:04:55;101557.22;;;12.53;100.00
45403;BME280;47427;51.976;5.326;2023-05-12T02:08:18;101558.00;;;12.49;100.00
45403;BME280;47427;51.976;5.326;2023-05-12T02:11:39;101558.00;;;12.49;100.00
45403;BME280;47427;51.976;5.326;2023-05-12T02:15:02;101565.13;;;12.53;100.00
45403;BME280;47427;51.976;5.326;2023-05-12T02:18:25;101561.59;;;12.52;100.00
45403;BME280;47427;51.976;5.326;2023-05-12T02:21:48;101552.91;;;12.55;100.00
45403;BME280;47427;51.976;5.326;2023-05-12T02:25:10;101559.84;;;12.53;100.00
45403;BME280;47427;51.976;5.326;2023-05-12T02:28:32;101550.13;;;12.50;100.00
45403;BME280;47427;51.976;5.326;2023-05-12T02:31:55;101562.38;;;12.48;100.00
45403;BME280;47427;51.976;5.326;2023-05-12T02:35:18;101548.22;;;12.45;100.00
45403;BME280;47427;51.976;5.326;2023-05-12T02:38:39;101543.97;;;12.50;100.00
45403;BME280;47427;51.976;5.326;2023-05-12T02:42:03;101544.88;;;12.50;100.00
45403;BME280;47427;51.976;5.326;2023-05-12T02:45:26;101542.13;;;12.46;100.00
45403;BME280;47427;51.976;5.326;2023-05-12T02:48:49;101547.41;;;12.46;100.00
45403;BME280;47427;51.976;5.326;2023-05-12T02:52:30;101543.00;;;12.46;100.00
45403;BME280;47427;51.976;5.326;2023-05-12T02:55:53;101535.88;;;12.42;100.00
45403;BME280;47427;51.976;5.326;2023-05-12T02:59:16;101543.03;;;12.48;100.00
45403;BME280;47427;51.976;5.326;2023-05-12T03:02:38;101533.22;;;12.42;100.00
45403;BME280;47427;51.976;5.326;2023-05-12T03:06:02;101539.53;;;12.47;100.00
45403;BME280;47427;51.976;5.326;2023-05-12T03:09:26;101537.56;;;12.40;100.00
45403;BME280;47427;51.976;5.326;2023-05-12T03:12:47;101529.41;;;12.31;100.00
45403;BME280;47427;51.976;5.326;2023-05-12T03:16:10;101530.94;;;12.24;100.00
45403;BME280;47427;51.976;5.326;2023-05-12T03:19:32;101526.78;;;12.31;100.00
45403;BME280;47427;51.976;5.326;2023-05-12T03:22:55;101524.88;;;12.27;100.00
45403;BME280;47427;51.976;5.326;2023-05-12T03:26:17;101524.09;;;12.29;100.00
45403;BME280;47427;51.976;5.326;2023-05-12T03:29:39;101523.09;;;12.26;100.00
45403;BME280;47427;51.976;5.326;2023-05-12T03:33:02;101514.53;;;12.33;100.00
45403;BME280;47427;51.976;5.326;2023-05-12T03:36:27;101513.56;;;12.29;100.00
45403;BME280;47427;51.976;5.326;2023-05-12T03:39:48;101521.31;;;12.25;100.00
45403;BME280;47427;51.976;5.326;2023-05-12T03:43:11;101517.72;;;12.23;100.00
45403;BME280;47427;51.976;5.326;2023-05-12T03:46:34;101520.34;;;12.21;100.00
45403;BME280;47427;51.976;5.326;2023-05-12T03:49:56;101515.06;;;12.21;100.00
45403;BME280;47427;51.976;5.326;2023-05-12T03:53:20;101518.75;;;12.28;100.00
45403;BME280;47427;51.976;5.326;2023-05-12T03:56:42;101521.38;;;12.26;100.00
45403;BME280;47427;51.976;5.326;2023-05-12T04:00:05;101521.31;;;12.25;100.00
45403;BME280;47427;51.976;5.326;2023-05-12T04:03:34;101518.69;;;12.25;100.00
45403;BME280;47427;51.976;5.326;2023-05-12T04:06:55;101517.66;;;12.20;100.00
45403;BME280;47427;51.976;5.326;2023-05-12T04:10:19;101523.09;;;12.26;100.00
45403;BME280;47427;51.976;5.326;2023-05-12T04:13:42;101521.38;;;12.28;100.00
45403;BME280;47427;51.976;5.326;2023-05-12T04:17:04;101517.16;;;12.33;100.00
45403;BME280;47427;51.976;5.326;2023-05-12T04:20:27;101515.56;;;12.38;100.00
45403;BME280;47427;51.976;5.326;2023-05-12T04:23:51;101518.25;;;12.40;100.00
45403;BME280;47427;51.976;5.326;2023-05-12T04:27:20;101527.16;;;12.45;100.00
45403;BME280;47427;51.976;5.326;2023-05-12T04:30:43;101529.06;;;12.49;100.00
45403;BME280;47427;51.976;5.326;2023-05-12T04:34:04;101527.47;;;12.55;100.00
45403;BME280;47427;51.976;5.326;2023-05-12T04:37:29;101528.50;;;12.61;100.00
45403;BME280;47427;51.976;5.326;2023-05-12T04:40:57;101532.84;;;12.58;100.00
45403;BME280;47427;51.976;5.326;2023-05-12T04:44:20;101528.50;;;12.61;100.00
45403;BME280;47427;51.976;5.326;2023-05-12T04:47:44;101532.84;;;12.58;100.00
45403;BME280;47427;51.976;5.326;2023-05-12T04:51:07;101531.13;;;12.61;100.00
45403;BME280;47427;51.976;5.326;2023-05-12T04:54:30;101534.69;;;12.61;100.00
45403;BME280;47427;51.976;5.326;2023-05-12T04:57:53;101547.13;;;12.67;100.00
45403;BME280;47427;51.976;5.326;2023-05-12T05:01:15;101546.31;;;12.69;100.00
45403;BME280;47427;51.976;5.326;2023-05-12T05:04:37;101546.31;;;12.69;100.00
45403;BME280;47427;51.976;5.326;2023-05-12T05:08:00;101557.09;;;12.78;100.00
45403;BME280;47427;51.976;5.326;2023-05-12T05:11:22;101564.19;;;12.81;100.00
45403;BME280;47427;51.976;5.326;2023-05-12T05:14:45;101573.97;;;12.85;100.00
45403;BME280;47427;51.976;5.326;2023-05-12T05:18:08;101567.16;;;12.92;100.00
45403;BME280;47427;51.976;5.326;2023-05-12T05:21:30;101574.31;;;12.97;100.00
45403;BME280;47427;51.976;5.326;2023-05-12T05:24:52;101572.91;;;13.10;100.00
45403;BME280;47427;51.976;5.326;2023-05-12T05:28:15;101567.03;;;13.20;100.00
45403;BME280;47427;51.976;5.326;2023-05-12T05:31:37;101562.13;;;13.33;100.00
45403;BME280;47427;51.976;5.326;2023-05-12T05:35:00;101561.44;;;13.40;100.00
45403;BME280;47427;51.976;5.326;2023-05-12T05:38:22;101574.84;;;13.49;100.00
45403;BME280;47427;51.976;5.326;2023-05-12T05:41:45;101574.28;;;13.61;100.00
45403;BME280;47427;51.976;5.326;2023-05-12T05:45:09;101576.88;;;13.59;100.00
45403;BME280;47427;51.976;5.326;2023-05-12T05:48:31;101577.19;;;13.72;100.00
45403;BME280;47427;51.976;5.326;2023-05-12T05:51:53;101581.38;;;13.63;100.00
45403;BME280;47427;51.976;5.326;2023-05-12T05:55:17;101585.03;;;13.69;100.00
45403;BME280;47427;51.976;5.326;2023-05-12T05:58:38;101582.75;;;13.82;100.00
45403;BME280;47427;51.976;5.326;2023-05-12T06:02:00;101591.03;;;13.98;100.00
45403;BME280;47427;51.976;5.326;2023-05-12T06:05:22;101594.00;;;14.12;100.00
45403;BME280;47427;51.976;5.326;2023-05-12T06:08:45;101595.16;;;14.24;100.00
45403;BME280;47427;51.976;5.326;2023-05-12T06:12:08;101589.94;;;14.27;100.00
45403;BME280;47427;51.976;5.326;2023-05-12T06:15:29;101597.03;;;14.28;100.00
45403;BME280;47427;51.976;5.326;2023-05-12T06:18:52;101603.41;;;14.38;100.00
45403;BME280;47427;51.976;5.326;2023-05-12T06:22:35;101608.03;;;14.48;100.00
45403;BME280;47427;51.976;5.326;2023-05-12T06:25:56;101613.53;;;14.58;100.00
45403;BME280;47427;51.976;5.326;2023-05-12T06:29:22;101617.34;;;14.70;100.00
45403;BME280;47427;51.976;5.326;2023-05-12T06:32:44;101618.41;;;14.79;100.00
45403;BME280;47427;51.976;5.326;2023-05-12T06:36:07;101622.00;;;14.82;100.00
45403;BME280;47427;51.976;5.326;2023-05-12T06:39:30;101624.03;;;14.95;100.00
45403;BME280;47427;51.976;5.326;2023-05-12T06:42:51;101627.19;;;15.22;100.00
45403;BME280;47427;51.976;5.326;2023-05-12T06:46:15;101628.13;;;15.22;100.00
45403;BME280;47427;51.976;5.326;2023-05-12T06:49:37;101632.78;;;15.35;100.00
45403;BME280;47427;51.976;5.326;2023-05-12T06:53:00;101641.03;;;15.54;100.00
45403;BME280;47427;51.976;5.326;2023-05-12T06:56:23;101639.53;;;15.68;100.00
45403;BME280;47427;51.976;5.326;2023-05-12T06:59:44;101635.44;;;15.84;100.00
45403;BME280;47427;51.976;5.326;2023-05-12T07:03:07;101632.69;;;16.33;100.00
45403;BME280;47427;51.976;5.326;2023-05-12T07:06:31;101636.69;;;16.64;100.00
45403;BME280;47427;51.976;5.326;2023-05-12T07:09:54;101647.44;;;16.75;100.00
45403;BME280;47427;51.976;5.326;2023-05-12T07:13:18;101646.94;;;17.03;100.00
45403;BME280;47427;51.976;5.326;2023-05-12T07:16:39;101654.41;;;17.37;100.00
45403;BME280;47427;51.976;5.326;2023-05-12T07:20:02;101653.88;;;17.68;100.00
45403;BME280;47427;51.976;5.326;2023-05-12T07:23:26;101649.66;;;17.86;100.00
45403;BME280;47427;51.976;5.326;2023-05-12T07:26:47;101648.88;;;18.01;100.00
45403;BME280;47427;51.976;5.326;2023-05-12T07:30:10;101660.69;;;18.36;100.00
45403;BME280;47427;51.976;5.326;2023-05-12T07:33:34;101662.19;;;18.04;100.00
45403;BME280;47427;51.976;5.326;2023-05-12T07:36:56;101674.75;;;18.28;100.00
45403;BME280;47427;51.976;5.326;2023-05-12T07:40:18;101668.09;;;18.91;100.00
45403;BME280;47427;51.976;5.326;2023-05-12T07:43:40;101681.75;;;19.83;100.00
45403;BME280;47427;51.976;5.326;2023-05-12T07:47:03;101665.75;;;20.66;100.00
45403;BME280;47427;51.976;5.326;2023-05-12T07:50:25;101666.63;;;20.61;100.00
45403;BME280;47427;51.976;5.326;2023-05-12T07:53:47;101676.41;;;20.68;100.00
45403;BME280;47427;51.976;5.326;2023-05-12T07:57:09;101682.28;;;21.54;99.15
45403;BME280;47427;51.976;5.326;2023-05-12T08:00:32;101675.53;;;22.32;92.56
45403;BME280;47427;51.976;5.326;2023-05-12T08:03:54;101677.28;;;23.20;89.42
45403;BME280;47427;51.976;5.326;2023-05-12T08:07:17;101673.00;;;25.61;63.99
45403;BME280;47427;51.976;5.326;2023-05-12T08:10:39;101675.59;;;26.73;56.13
45403;BME280;47427;51.976;5.326;2023-05-12T08:14:02;101673.97;;;27.30;55.21
45403;BME280;47427;51.976;5.326;2023-05-12T08:17:25;101668.81;;;28.60;53.40
45403;BME280;47427;51.976;5.326;2023-05-12T08:20:48;101674.06;;;29.13;48.97
45403;BME280;47427;51.976;5.326;2023-05-12T08:24:11;101678.72;;;29.33;45.68
45403;BME280;47427;51.976;5.326;2023-05-12T08:27:34;101679.81;;;28.79;47.63
45403;BME280;47427;51.976;5.326;2023-05-12T08:30:57;101674.81;;;28.16;47.70
45403;BME280;47427;51.976;5.326;2023-05-12T08:34:20;101683.00;;;27.86;48.25
45403;BME280;47427;51.976;5.326;2023-05-12T08:37:42;101678.69;;;27.79;49.14
45403;BME280;47427;51.976;5.326;2023-05-12T08:41:18;101688.81;;;28.01;50.10
45403;BME280;47427;51.976;5.326;2023-05-12T08:44:44;101690.56;;;27.45;48.94
45403;BME280;47427;51.976;5.326;2023-05-12T08:48:09;101686.28;;;27.38;49.20
45403;BME280;47427;51.976;5.326;2023-05-12T08:51:33;101692.69;;;28.72;46.02
45403;BME280;47427;51.976;5.326;2023-05-12T08:54:58;101697.63;;;30.44;42.59
45403;BME280;47427;51.976;5.326;2023-05-12T08:58:21;101703.50;;;30.54;39.12
45403;BME280;47427;51.976;5.326;2023-05-12T09:01:44;101699.97;;;29.19;41.01
45403;BME280;47427;51.976;5.326;2023-05-12T09:05:16;101705.59;;;30.27;38.77
45403;BME280;47427;51.976;5.326;2023-05-12T09:08:40;101703.03;;;31.82;37.23
45403;BME280;47427;51.976;5.326;2023-05-12T09:12:01;101713.16;;;31.97;36.66
45403;BME280;47427;51.976;5.326;2023-05-12T09:15:36;101710.94;;;31.10;36.82
45403;BME280;47427;51.976;5.326;2023-05-12T09:19:01;101709.28;;;32.20;34.74
45403;BME280;47427;51.976;5.326;2023-05-12T09:22:30;101708.41;;;30.66;35.02
45403;BME280;47427;51.976;5.326;2023-05-12T09:25:59;101710.56;;;28.49;38.63
45403;BME280;47427;51.976;5.326;2023-05-12T09:29:24;101712.59;;;26.97;40.63
45403;BME280;47427;51.976;5.326;2023-05-12T09:32:46;101715.00;;;27.07;41.49
45403;BME280;47427;51.976;5.326;2023-05-12T09:36:09;101726.41;;;29.34;39.32
45403;BME280;47427;51.976;5.326;2023-05-12T09:39:32;101730.47;;;29.69;36.48
45403;BME280;47427;51.976;5.326;2023-05-12T09:42:55;101724.50;;;29.37;37.88
45403;BME280;47427;51.976;5.326;2023-05-12T09:46:18;101721.47;;;29.22;38.14
45403;BME280;47427;51.976;5.326;2023-05-12T09:49:45;101731.38;;;28.72;38.88
45403;BME280;47427;51.976;5.326;2023-05-12T09:53:10;101733.59;;;29.58;38.82
45403;BME280;47427;51.976;5.326;2023-05-12T09:56:35;101726.84;;;28.20;38.90
45403;BME280;47427;51.976;5.326;2023-05-12T09:59:59;101729.69;;;27.88;38.68
45403;BME280;47427;51.976;5.326;2023-05-12T10:03:23;101742.13;;;30.15;37.96
45403;BME280;47427;51.976;5.326;2023-05-12T10:06:47;101728.63;;;30.58;34.79
45403;BME280;47427;51.976;5.326;2023-05-12T10:10:11;101733.22;;;30.76;35.09
45403;BME280;47427;51.976;5.326;2023-05-12T10:13:36;101732.69;;;31.67;34.93
45403;BME280;47427;51.976;5.326;2023-05-12T10:16:59;101740.75;;;32.07;32.75
45403;BME280;47427;51.976;5.326;2023-05-12T10:20:22;101738.78;;;32.28;32.74
45403;BME280;47427;51.976;5.326;2023-05-12T10:23:47;101736.28;;;32.23;32.29
45403;BME280;47427;51.976;5.326;2023-05-12T10:27:09;101733.84;;;33.06;31.77
45403;BME280;47427;51.976;5.326;2023-05-12T10:30:33;101739.22;;;30.64;32.64
45403;BME280;47427;51.976;5.326;2023-05-12T10:33:58;101736.84;;;29.90;35.18
45403;BME280;47427;51.976;5.326;2023-05-12T10:37:22;101739.50;;;29.45;36.53
45403;BME280;47427;51.976;5.326;2023-05-12T10:40:55;101742.09;;;28.99;35.59
45403;BME280;47427;51.976;5.326;2023-05-12T10:44:26;101746.16;;;28.34;35.44
45403;BME280;47427;51.976;5.326;2023-05-12T10:47:49;101752.84;;;28.22;37.62
45403;BME280;47427;51.976;5.326;2023-05-12T10:51:19;101752.66;;;26.77;39.12
45403;BME280;47427;51.976;5.326;2023-05-12T10:54:43;101754.63;;;26.70;38.82
45403;BME280;47427;51.976;5.326;2023-05-12T10:58:09;101750.09;;;26.72;40.79
45403;BME280;47427;51.976;5.326;2023-05-12T11:01:31;101748.03;;;26.82;40.01
45403;BME280;47427;51.976;5.326;2023-05-12T11:05:01;101736.25;;;27.50;38.17
45403;BME280;47427;51.976;5.326;2023-05-12T11:08:27;101745.28;;;27.18;37.44
45403;BME280;47427;51.976;5.326;2023-05-12T11:11:49;101742.81;;;28.54;38.96
45403;BME280;47427;51.976;5.326;2023-05-12T11:15:13;101762.03;;;29.70;34.41
45403;BME280;47427;51.976;5.326;2023-05-12T11:18:36;101756.66;;;30.57;34.91
45403;BME280;47427;51.976;5.326;2023-05-12T11:22:05;101745.25;;;30.91;32.13
45403;BME280;47427;51.976;5.326;2023-05-12T11:25:27;101744.25;;;31.33;32.42
45403;BME280;47427;51.976;5.326;2023-05-12T11:28:49;101754.84;;;33.19;30.44
45403;BME280;47427;51.976;5.326;2023-05-12T11:32:14;101761.59;;;37.07;25.72
45403;BME280;47427;51.976;5.326;2023-05-12T11:35:37;101764.66;;;38.98;22.71
45403;BME280;47427;51.976;5.326;2023-05-12T11:38:58;101760.34;;;40.92;21.73
45403;BME280;47427;51.976;5.326;2023-05-12T11:42:21;101760.25;;;40.61;19.60
45403;BME280;47427;51.976;5.326;2023-05-12T11:45:44;101755.31;;;40.23;21.37
45403;BME280;47427;51.976;5.326;2023-05-12T11:49:10;101755.63;;;40.41;20.09
45403;BME280;47427;51.976;5.326;2023-05-12T11:52:35;101752.19;;;40.27;18.81
45403;BME280;47427;51.976;5.326;2023-05-12T11:55:58;101759.38;;;41.54;19.72
45403;BME280;47427;51.976;5.326;2023-05-12T11:59:45;101753.03;;;41.64;17.92
45403;BME280;47427;51.976;5.326;2023-05-12T12:03:18;101758.84;;;41.70;18.02
45403;BME280;47427;51.976;5.326;2023-05-12T12:06:44;101750.91;;;39.88;19.28
45403;BME280;47427;51.976;5.326;2023-05-12T12:10:14;101754.16;;;38.45;20.62
45403;BME280;47427;51.976;5.326;2023-05-12T12:17:21;101746.66;;;40.60;19.04
45403;BME280;47427;51.976;5.326;2023-05-12T12:20:49;101739.91;;;41.46;19.38
45403;BME280;47427;51.976;5.326;2023-05-12T12:24:11;101749.50;;;42.80;18.30
45403;BME280;47427;51.976;5.326;2023-05-12T12:27:52;101745.84;;;42.89;16.92
45403;BME280;47427;51.976;5.326;2023-05-12T12:31:15;101741.38;;;41.10;18.10
45403;BME280;47427;51.976;5.326;2023-05-12T12:34:37;101751.50;;;40.67;19.49
45403;BME280;47427;51.976;5.326;2023-05-12T12:38:00;101754.91;;;37.99;19.91
45403;BME280;47427;51.976;5.326;2023-05-12T12:41:21;101741.91;;;36.36;21.76
45403;BME280;47427;51.976;5.326;2023-05-12T12:44:44;101742.72;;;35.97;23.12
45403;BME280;47427;51.976;5.326;2023-05-12T12:48:09;101749.25;;;35.10;23.12
45403;BME280;47427;51.976;5.326;2023-05-12T12:51:31;101742.81;;;32.90;25.67
45403;BME280;47427;51.976;5.326;2023-05-12T12:55:12;101750.97;;;32.73;26.27
45403;BME280;47427;51.976;5.326;2023-05-12T12:58:34;101751.50;;;33.14;26.68
45403;BME280;47427;51.976;5.326;2023-05-12T13:01:57;101761.63;;;33.77;25.03
45403;BME280;47427;51.976;5.326;2023-05-12T13:05:21;101754.59;;;34.05;26.58
45403;BME280;47427;51.976;5.326;2023-05-12T13:08:42;101751.38;;;34.60;24.71
45403;BME280;47427;51.976;5.326;2023-05-12T13:12:06;101747.03;;;34.26;26.09
45403;BME280;47427;51.976;5.326;2023-05-12T13:15:29;101754.44;;;34.24;25.45
45403;BME280;47427;51.976;5.326;2023-05-12T13:18:52;101742.09;;;35.07;25.27
45403;BME280;47427;51.976;5.326;2023-05-12T13:22:15;101745.75;;;34.47;25.65
45403;BME280;47427;51.976;5.326;2023-05-12T13:25:37;101754.91;;;34.77;26.77
45403;BME280;47427;51.976;5.326;2023-05-12T13:28:59;101741.16;;;33.70;24.80
45403;BME280;47427;51.976;5.326;2023-05-12T13:32:20;101746.41;;;34.05;26.63
45403;BME280;47427;51.976;5.326;2023-05-12T13:35:42;101739.53;;;34.76;24.61
45403;BME280;47427;51.976;5.326;2023-05-12T13:39:03;101742.25;;;36.17;23.67
45403;BME280;47427;51.976;5.326;2023-05-12T13:42:26;101745.44;;;38.03;22.71
45403;BME280;47427;51.976;5.326;2023-05-12T13:45:47;101740.31;;;39.27;20.84
45403;BME280;47427;51.976;5.326;2023-05-12T13:49:10;101744.09;;;37.22;20.92
45403;BME280;47427;51.976;5.326;2023-05-12T13:52:34;101743.66;;;36.10;22.84
45403;BME280;47427;51.976;5.326;2023-05-12T13:55:55;101740.56;;;36.69;22.18
45403;BME280;47427;51.976;5.326;2023-05-12T13:59:18;101740.34;;;36.32;22.70
45403;BME280;47427;51.976;5.326;2023-05-12T14:02:41;101733.06;;;36.18;22.91
45403;BME280;47427;51.976;5.326;2023-05-12T14:06:03;101741.25;;;36.45;22.02
45403;BME280;47427;51.976;5.326;2023-05-12T14:09:26;101734.84;;;39.27;19.38
45403;BME280;47427;51.976;5.326;2023-05-12T14:12:48;101734.84;;;38.93;19.50
45403;BME280;47427;51.976;5.326;2023-05-12T14:16:11;101745.34;;;37.68;20.41
45403;BME280;47427;51.976;5.326;2023-05-12T14:19:35;101740.16;;;36.08;22.16
45403;BME280;47427;51.976;5.326;2023-05-12T14:22:56;101735.72;;;34.02;23.33
45403;BME280;47427;51.976;5.326;2023-05-12T14:26:19;101731.59;;;33.30;25.95
45403;BME280;47427;51.976;5.326;2023-05-12T14:29:44;101739.81;;;33.45;24.95
45403;BME280;47427;51.976;5.326;2023-05-12T14:33:05;101734.94;;;33.84;24.28
45403;BME280;47427;51.976;5.326;2023-05-12T14:36:28;101737.53;;;35.51;21.93
45403;BME280;47427;51.976;5.326;2023-05-12T14:39:49;101739.38;;;36.46;21.85
45403;BME280;47427;51.976;5.326;2023-05-12T14:43:12;101742.78;;;37.02;21.73
45403;BME280;47427;51.976;5.326;2023-05-12T14:46:35;101746.13;;;38.18;20.45
45403;BME280;47427;51.976;5.326;2023-05-12T14:49:57;101742.47;;;39.23;19.83
45403;BME280;47427;51.976;5.326;2023-05-12T14:53:20;101739.22;;;37.64;20.44
45403;BME280;47427;51.976;5.326;2023-05-12T14:56:43;101742.91;;;36.21;23.33
45403;BME280;47427;51.976;5.326;2023-05-12T15:00:10;101748.38;;;37.14;21.58
45403;BME280;47427;51.976;5.326;2023-05-12T15:03:33;101747.94;;;35.01;24.75
45403;BME280;47427;51.976;5.326;2023-05-12T15:06:54;101740.50;;;37.71;21.51
45403;BME280;47427;51.976;5.326;2023-05-12T15:10:17;101739.75;;;38.66;20.52
45403;BME280;47427;51.976;5.326;2023-05-12T15:13:40;101736.34;;;35.69;21.05
45403;BME280;47427;51.976;5.326;2023-05-12T15:17:02;101727.19;;;34.54;22.92
45403;BME280;47427;51.976;5.326;2023-05-12T15:20:24;101724.44;;;35.56;21.56
45403;BME280;47427;51.976;5.326;2023-05-12T15:23:47;101719.63;;;33.97;24.62
45403;BME280;47427;51.976;5.326;2023-05-12T15:27:09;101713.47;;;35.14;23.17
45403;BME280;47427;51.976;5.326;2023-05-12T15:30:32;101716.56;;;33.07;23.78
45403;BME280;47427;51.976;5.326;2023-05-12T15:33:56;101715.91;;;32.14;24.11
45403;BME280;47427;51.976;5.326;2023-05-12T15:37:19;101715.47;;;32.41;26.29
45403;BME280;47427;51.976;5.326;2023-05-12T15:40:41;101721.25;;;30.61;28.91
45403;BME280;47427;51.976;5.326;2023-05-12T15:44:03;101724.28;;;32.64;26.56
45403;BME280;47427;51.976;5.326;2023-05-12T15:47:26;101732.91;;;34.19;25.37
45403;BME280;47427;51.976;5.326;2023-05-12T15:50:49;101733.13;;;34.30;24.58
45403;BME280;47427;51.976;5.326;2023-05-12T15:54:11;101726.75;;;34.46;24.05
45403;BME280;47427;51.976;5.326;2023-05-12T15:57:34;101728.63;;;34.76;23.77
45403;BME280;47427;51.976;5.326;2023-05-12T16:00:56;101724.53;;;36.10;23.67
45403;BME280;47427;51.976;5.326;2023-05-12T16:04:18;101730.81;;;36.25;22.26
45403;BME280;47427;51.976;5.326;2023-05-12T16:07:41;101724.91;;;35.77;22.89
45403;BME280;47427;51.976;5.326;2023-05-12T16:11:03;101726.81;;;32.84;24.05
45403;BME280;47427;51.976;5.326;2023-05-12T16:14:26;101745.75;;;29.47;28.02
45403;BME280;47427;51.976;5.326;2023-05-12T16:18:07;101743.88;;;27.34;31.26
45403;BME280;47427;51.976;5.326;2023-05-12T16:21:30;101751.78;;;26.41;32.84
45403;BME280;47427;51.976;5.326;2023-05-12T16:24:53;101753.75;;;25.56;35.08
45403;BME280;47427;51.976;5.326;2023-05-12T16:28:16;101755.72;;;25.01;35.29
45403;BME280;47427;51.976;5.326;2023-05-12T16:31:39;101759.38;;;24.48;36.41
45403;BME280;47427;51.976;5.326;2023-05-12T16:35:02;101765.22;;;24.17;37.44
45403;BME280;47427;51.976;5.326;2023-05-12T16:38:24;101780.53;;;24.09;38.22
45403;BME280;47427;51.976;5.326;2023-05-12T16:41:47;101777.88;;;24.09;39.27
45403;BME280;47427;51.976;5.326;2023-05-12T16:45:09;101780.59;;;24.04;40.36
45403;BME280;47427;51.976;5.326;2023-05-12T16:48:32;101796.97;;;23.84;40.39
45403;BME280;47427;51.976;5.326;2023-05-12T16:51:55;101788.22;;;23.68;41.03
45403;BME280;47427;51.976;5.326;2023-05-12T16:55:17;101797.25;;;23.63;43.55
45403;BME280;47427;51.976;5.326;2023-05-12T16:58:39;101788.63;;;23.34;43.70
45403;BME280;47427;51.976;5.326;2023-05-12T17:02:05;101788.88;;;23.13;44.83
45403;BME280;47427;51.976;5.326;2023-05-12T17:05:28;101798.41;;;23.39;42.40
45403;BME280;47427;51.976;5.326;2023-05-12T17:08:50;101777.22;;;23.19;43.38
45403;BME280;47427;51.976;5.326;2023-05-12T17:12:12;101804.97;;;23.11;43.73
45403;BME280;47427;51.976;5.326;2023-05-12T17:15:39;101802.41;;;23.01;43.54
45403;BME280;47427;51.976;5.326;2023-05-12T17:19:02;101809.56;;;23.00;45.16
45403;BME280;47427;51.976;5.326;2023-05-12T17:22:23;101811.28;;;23.06;45.82
45403;BME280;47427;51.976;5.326;2023-05-12T17:25:46;101821.00;;;23.14;47.07
45403;BME280;47427;51.976;5.326;2023-05-12T17:29:07;101827.41;;;22.97;42.84
45403;BME280;47427;51.976;5.326;2023-05-12T17:32:31;101827.41;;;22.93;44.03
45403;BME280;47427;51.976;5.326;2023-05-12T17:35:54;101833.03;;;22.64;45.04
45403;BME280;47427;51.976;5.326;2023-05-12T17:39:18;101835.09;;;22.27;45.24
45403;BME280;47427;51.976;5.326;2023-05-12T17:42:41;101833.56;;;21.74;48.79